sensor_id;sensor_type;location;lat;lon;timestamp;P1;durP1;ratioP1;P2;durP2;ratioP2
61250;SDS011;47126;47.508;8.590;2023-04-06T00:02:21;14.90;;;7.78;;
61250;SDS011;47126;47.508;8.590;2023-04-06T00:04:47;15.15;;;7.93;;
61250;SDS011;47126;47.508;8.590;2023-04-06T00:07:14;16.58;;;8.80;;
61250;SDS011;47126;47.508;8.590;2023-04-06T00:09:40;16.10;;;8.32;;
61250;SDS011;47126;47.508;8.590;2023-04-06T00:12:06;16.23;;;7.97;;
61250;SDS011;47126;47.508;8.590;2023-04-06T00:14:32;15.95;;;8.48;;
61250;SDS011;47126;47.508;8.590;2023-04-06T00:16:58;16.63;;;8.60;;
61250;SDS011;47126;47.508;8.590;2023-04-06T00:19:24;15.07;;;8.13;;
61250;SDS011;47126;47.508;8.590;2023-04-06T00:21:51;17.65;;;9.13;;
61250;SDS011;47126;47.508;8.590;2023-04-06T00:24:18;18.73;;;8.65;;
61250;SDS011;47126;47.508;8.590;2023-04-06T00:26:45;17.67;;;9.10;;
61250;SDS011;47126;47.508;8.590;2023-04-06T00:29:12;16.85;;;9.15;;
61250;SDS011;47126;47.508;8.590;2023-04-06T00:31:38;16.38;;;8.50;;
61250;SDS011;47126;47.508;8.590;2023-04-06T00:34:05;18.48;;;8.00;;
61250;SDS011;47126;47.508;8.590;2023-04-06T00:36:31;17.52;;;8.30;;
61250;SDS011;47126;47.508;8.590;2023-04-06T00:38:57;15.23;;;7.93;;
61250;SDS011;47126;47.508;8.590;2023-04-06T00:41:23;15.95;;;8.20;;
61250;SDS011;47126;47.508;8.590;2023-04-06T00:43:49;17.52;;;8.45;;
61250;SDS011;47126;47.508;8.590;2023-04-06T00:46:15;18.08;;;8.68;;
61250;SDS011;47126;47.508;8.590;2023-04-06T00:48:41;15.32;;;8.10;;
61250;SDS011;47126;47.508;8.590;2023-04-06T00:51:07;19.95;;;8.40;;
61250;SDS011;47126;47.508;8.590;2023-04-06T00:53:33;18.85;;;8.57;;
61250;SDS011;47126;47.508;8.590;2023-04-06T00:56:00;18.90;;;8.90;;
61250;SDS011;47126;47.508;8.590;2023-04-06T00:58:26;17.20;;;8.15;;
61250;SDS011;47126;47.508;8.590;2023-04-06T01:00:52;15.80;;;8.80;;
61250;SDS011;47126;47.508;8.590;2023-04-06T01:03:18;16.38;;;8.07;;
61250;SDS011;47126;47.508;8.590;2023-04-06T01:05:44;19.65;;;9.20;;
61250;SDS011;47126;47.508;8.590;2023-04-06T01:08:10;17.08;;;8.80;;
61250;SDS011;47126;47.508;8.590;2023-04-06T01:10:36;21.50;;;9.77;;
61250;SDS011;47126;47.508;8.590;2023-04-06T01:13:02;19.40;;;9.90;;
61250;SDS011;47126;47.508;8.590;2023-04-06T01:15:29;17.83;;;9.30;;
61250;SDS011;47126;47.508;8.590;2023-04-06T01:17:55;20.98;;;8.70;;
61250;SDS011;47126;47.508;8.590;2023-04-06T01:20:22;17.13;;;8.85;;
61250;SDS011;47126;47.508;8.590;2023-04-06T01:22:48;17.90;;;9.15;;
61250;SDS011;47126;47.508;8.590;2023-04-06T01:25:14;17.02;;;8.60;;
61250;SDS011;47126;47.508;8.590;2023-04-06T01:27:40;18.70;;;8.18;;
61250;SDS011;47126;47.508;8.590;2023-04-06T01:30:07;17.92;;;8.45;;
61250;SDS011;47126;47.508;8.590;2023-04-06T01:32:33;17.98;;;8.15;;
61250;SDS011;47126;47.508;8.590;2023-04-06T01:34:59;18.42;;;9.38;;
61250;SDS011;47126;47.508;8.590;2023-04-06T01:37:25;20.27;;;9.45;;
61250;SDS011;47126;47.508;8.590;2023-04-06T01:39:52;18.65;;;8.95;;
61250;SDS011;47126;47.508;8.590;2023-04-06T01:42:18;18.75;;;9.52;;
61250;SDS011;47126;47.508;8.590;2023-04-06T01:44:44;20.00;;;9.43;;
61250;SDS011;47126;47.508;8.590;2023-04-06T01:47:10;19.25;;;7.75;;
61250;SDS011;47126;47.508;8.590;2023-04-06T01:49:36;18.08;;;8.27;;
61250;SDS011;47126;47.508;8.590;2023-04-06T01:52:03;16.63;;;7.25;;
61250;SDS011;47126;47.508;8.590;2023-04-06T01:54:29;17.15;;;7.97;;
61250;SDS011;47126;47.508;8.590;2023-04-06T01:56:55;19.65;;;8.80;;
61250;SDS011;47126;47.508;8.590;2023-04-06T01:59:21;17.95;;;8.10;;
61250;SDS011;47126;47.508;8.590;2023-04-06T02:01:47;17.42;;;7.90;;
61250;SDS011;47126;47.508;8.590;2023-04-06T02:04:13;19.20;;;7.93;;
61250;SDS011;47126;47.508;8.590;2023-04-06T02:06:39;16.73;;;8.07;;
61250;SDS011;47126;47.508;8.590;2023-04-06T02:09:05;18.35;;;8.77;;
61250;SDS011;47126;47.508;8.590;2023-04-06T02:11:31;22.05;;;8.63;;
61250;SDS011;47126;47.508;8.590;2023-04-06T02:13:57;20.02;;;8.98;;
61250;SDS011;47126;47.508;8.590;2023-04-06T02:16:25;22.30;;;9.20;;
61250;SDS011;47126;47.508;8.590;2023-04-06T02:18:51;20.20;;;9.68;;
61250;SDS011;47126;47.508;8.590;2023-04-06T02:21:17;17.35;;;9.10;;
61250;SDS011;47126;47.508;8.590;2023-04-06T02:23:45;18.83;;;8.65;;
61250;SDS011;47126;47.508;8.590;2023-04-06T02:26:12;16.88;;;8.40;;
61250;SDS011;47126;47.508;8.590;2023-04-06T02:28:39;20.98;;;8.57;;
61250;SDS011;47126;47.508;8.590;2023-04-06T02:31:05;17.98;;;8.70;;
61250;SDS011;47126;47.508;8.590;2023-04-06T02:33:31;15.23;;;7.82;;
61250;SDS011;47126;47.508;8.590;2023-04-06T02:35:57;17.00;;;7.72;;
61250;SDS011;47126;47.508;8.590;2023-04-06T02:38:23;18.90;;;8.73;;
61250;SDS011;47126;47.508;8.590;2023-04-06T02:40:49;19.80;;;8.40;;
61250;SDS011;47126;47.508;8.590;2023-04-06T02:43:16;20.98;;;9.18;;
61250;SDS011;47126;47.508;8.590;2023-04-06T02:45:43;20.45;;;9.23;;
61250;SDS011;47126;47.508;8.590;2023-04-06T02:48:09;18.30;;;9.45;;
61250;SDS011;47126;47.508;8.590;2023-04-06T02:50:35;18.98;;;7.78;;
61250;SDS011;47126;47.508;8.590;2023-04-06T02:53:01;21.35;;;8.93;;
61250;SDS011;47126;47.508;8.590;2023-04-06T02:55:27;17.38;;;8.93;;
61250;SDS011;47126;47.508;8.590;2023-04-06T02:57:53;20.77;;;10.00;;
61250;SDS011;47126;47.508;8.590;2023-04-06T03:00:19;23.50;;;9.82;;
61250;SDS011;47126;47.508;8.590;2023-04-06T03:02:45;21.30;;;9.25;;
61250;SDS011;47126;47.508;8.590;2023-04-06T03:05:11;24.25;;;9.75;;
61250;SDS011;47126;47.508;8.590;2023-04-06T03:07:37;18.73;;;8.68;;
61250;SDS011;47126;47.508;8.590;2023-04-06T03:10:03;22.90;;;9.80;;
61250;SDS011;47126;47.508;8.590;2023-04-06T03:12:30;22.50;;;9.60;;
61250;SDS011;47126;47.508;8.590;2023-04-06T03:14:56;18.13;;;8.40;;
61250;SDS011;47126;47.508;8.590;2023-04-06T03:17:22;21.83;;;8.65;;
61250;SDS011;47126;47.508;8.590;2023-04-06T03:19:48;21.92;;;9.43;;
61250;SDS011;47126;47.508;8.590;2023-04-06T03:22:14;20.17;;;8.80;;
61250;SDS011;47126;47.508;8.590;2023-04-06T03:24:40;20.83;;;9.43;;
61250;SDS011;47126;47.508;8.590;2023-04-06T03:27:06;21.88;;;9.10;;
61250;SDS011;47126;47.508;8.590;2023-04-06T03:29:32;16.80;;;8.32;;
61250;SDS011;47126;47.508;8.590;2023-04-06T03:31:58;19.58;;;8.77;;
61250;SDS011;47126;47.508;8.590;2023-04-06T03:34:24;19.17;;;8.45;;
61250;SDS011;47126;47.508;8.590;2023-04-06T03:36:50;20.50;;;9.13;;
61250;SDS011;47126;47.508;8.590;2023-04-06T03:39:16;18.75;;;8.68;;
61250;SDS011;47126;47.508;8.590;2023-04-06T03:41:43;18.08;;;8.43;;
61250;SDS011;47126;47.508;8.590;2023-04-06T03:44:09;18.02;;;8.55;;
61250;SDS011;47126;47.508;8.590;2023-04-06T03:46:35;18.77;;;9.15;;
61250;SDS011;47126;47.508;8.590;2023-04-06T03:49:01;17.35;;;9.10;;
61250;SDS011;47126;47.508;8.590;2023-04-06T03:51:27;22.77;;;9.55;;
61250;SDS011;47126;47.508;8.590;2023-04-06T03:53:54;19.20;;;9.13;;
61250;SDS011;47126;47.508;8.590;2023-04-06T03:56:20;20.30;;;9.30;;
61250;SDS011;47126;47.508;8.590;2023-04-06T03:58:46;21.08;;;10.00;;
61250;SDS011;47126;47.508;8.590;2023-04-06T04:01:15;21.42;;;9.90;;
61250;SDS011;47126;47.508;8.590;2023-04-06T04:03:42;18.70;;;8.70;;
61250;SDS011;47126;47.508;8.590;2023-04-06T04:06:08;18.60;;;8.85;;
61250;SDS011;47126;47.508;8.590;2023-04-06T04:08:34;24.27;;;9.55;;
61250;SDS011;47126;47.508;8.590;2023-04-06T04:11:00;22.50;;;9.23;;
61250;SDS011;47126;47.508;8.590;2023-04-06T04:13:26;21.85;;;9.45;;
61250;SDS011;47126;47.508;8.590;2023-04-06T04:15:52;21.60;;;9.23;;
61250;SDS011;47126;47.508;8.590;2023-04-06T04:18:18;21.23;;;9.95;;
61250;SDS011;47126;47.508;8.590;2023-04-06T04:20:45;21.27;;;9.68;;
61250;SDS011;47126;47.508;8.590;2023-04-06T04:23:11;24.40;;;10.27;;
61250;SDS011;47126;47.508;8.590;2023-04-06T04:25:37;21.58;;;9.38;;
61250;SDS011;47126;47.508;8.590;2023-04-06T04:28:04;21.58;;;9.55;;
61250;SDS011;47126;47.508;8.590;2023-04-06T04:30:30;20.67;;;9.32;;
61250;SDS011;47126;47.508;8.590;2023-04-06T04:54:40;21.45;;;8.95;;
61250;SDS011;47126;47.508;8.590;2023-04-06T04:57:08;22.75;;;9.75;;
61250;SDS011;47126;47.508;8.590;2023-04-06T04:59:34;17.38;;;9.48;;
61250;SDS011;47126;47.508;8.590;2023-04-06T05:02:00;24.92;;;10.48;;
61250;SDS011;47126;47.508;8.590;2023-04-06T05:04:26;24.83;;;9.77;;
61250;SDS011;47126;47.508;8.590;2023-04-06T05:07:03;22.42;;;11.27;;
61250;SDS011;47126;47.508;8.590;2023-04-06T05:09:29;22.52;;;11.20;;
61250;SDS011;47126;47.508;8.590;2023-04-06T05:11:56;25.17;;;10.20;;
61250;SDS011;47126;47.508;8.590;2023-04-06T05:14:22;23.00;;;10.18;;
61250;SDS011;47126;47.508;8.590;2023-04-06T05:16:49;32.35;;;10.13;;
61250;SDS011;47126;47.508;8.590;2023-04-06T05:19:15;35.45;;;11.13;;
61250;SDS011;47126;47.508;8.590;2023-04-06T05:21:41;27.80;;;10.68;;
61250;SDS011;47126;47.508;8.590;2023-04-06T05:24:07;29.58;;;10.95;;
61250;SDS011;47126;47.508;8.590;2023-04-06T05:26:33;24.65;;;10.07;;
61250;SDS011;47126;47.508;8.590;2023-04-06T05:28:59;22.80;;;10.52;;
61250;SDS011;47126;47.508;8.590;2023-04-06T05:31:26;26.27;;;10.50;;
61250;SDS011;47126;47.508;8.590;2023-04-06T05:33:52;23.77;;;10.70;;
61250;SDS011;47126;47.508;8.590;2023-04-06T05:36:18;25.50;;;10.43;;
61250;SDS011;47126;47.508;8.590;2023-04-06T05:38:45;25.83;;;9.55;;
61250;SDS011;47126;47.508;8.590;2023-04-06T05:41:11;27.35;;;11.05;;
61250;SDS011;47126;47.508;8.590;2023-04-06T05:43:37;25.27;;;11.00;;
61250;SDS011;47126;47.508;8.590;2023-04-06T05:46:03;32.40;;;11.40;;
61250;SDS011;47126;47.508;8.590;2023-04-06T05:48:32;29.70;;;11.25;;
61250;SDS011;47126;47.508;8.590;2023-04-06T05:50:58;23.70;;;10.70;;
61250;SDS011;47126;47.508;8.590;2023-04-06T05:53:25;29.73;;;11.43;;
61250;SDS011;47126;47.508;8.590;2023-04-06T05:55:54;34.83;;;11.57;;
61250;SDS011;47126;47.508;8.590;2023-04-06T05:58:22;21.05;;;11.00;;
61250;SDS011;47126;47.508;8.590;2023-04-06T06:00:48;25.65;;;12.43;;
61250;SDS011;47126;47.508;8.590;2023-04-06T06:03:14;24.90;;;11.65;;
61250;SDS011;47126;47.508;8.590;2023-04-06T06:05:40;27.23;;;12.40;;
61250;SDS011;47126;47.508;8.590;2023-04-06T06:08:07;24.27;;;12.25;;
61250;SDS011;47126;47.508;8.590;2023-04-06T06:10:33;24.85;;;11.15;;
61250;SDS011;47126;47.508;8.590;2023-04-06T06:12:59;27.77;;;12.45;;
61250;SDS011;47126;47.508;8.590;2023-04-06T06:15:25;22.77;;;11.63;;
61250;SDS011;47126;47.508;8.590;2023-04-06T06:17:51;40.47;;;19.95;;
61250;SDS011;47126;47.508;8.590;2023-04-06T06:20:17;28.35;;;13.98;;
61250;SDS011;47126;47.508;8.590;2023-04-06T06:22:46;18.55;;;10.50;;
61250;SDS011;47126;47.508;8.590;2023-04-06T06:25:12;18.55;;;8.98;;
61250;SDS011;47126;47.508;8.590;2023-04-06T06:27:41;16.85;;;8.57;;
61250;SDS011;47126;47.508;8.590;2023-04-06T06:30:10;17.35;;;8.88;;
61250;SDS011;47126;47.508;8.590;2023-04-06T06:32:39;18.20;;;9.23;;
61250;SDS011;47126;47.508;8.590;2023-04-06T06:35:05;17.52;;;8.75;;
61250;SDS011;47126;47.508;8.590;2023-04-06T06:37:34;18.48;;;9.43;;
61250;SDS011;47126;47.508;8.590;2023-04-06T06:40:01;18.92;;;9.57;;
61250;SDS011;47126;47.508;8.590;2023-04-06T06:42:27;20.52;;;11.52;;
61250;SDS011;47126;47.508;8.590;2023-04-06T06:44:59;20.17;;;10.95;;
61250;SDS011;47126;47.508;8.590;2023-04-06T06:47:25;19.42;;;10.70;;
61250;SDS011;47126;47.508;8.590;2023-04-06T06:49:54;19.90;;;9.35;;
61250;SDS011;47126;47.508;8.590;2023-04-06T06:52:20;19.75;;;9.80;;
61250;SDS011;47126;47.508;8.590;2023-04-06T06:54:50;18.55;;;9.10;;
61250;SDS011;47126;47.508;8.590;2023-04-06T06:57:16;15.25;;;7.82;;
61250;SDS011;47126;47.508;8.590;2023-04-06T06:59:42;18.02;;;9.73;;
61250;SDS011;47126;47.508;8.590;2023-04-06T07:02:08;18.77;;;8.70;;
61250;SDS011;47126;47.508;8.590;2023-04-06T07:04:35;19.55;;;8.80;;
61250;SDS011;47126;47.508;8.590;2023-04-06T07:07:01;16.55;;;8.85;;
61250;SDS011;47126;47.508;8.590;2023-04-06T07:09:28;18.27;;;9.02;;
61250;SDS011;47126;47.508;8.590;2023-04-06T07:11:54;17.30;;;8.43;;
61250;SDS011;47126;47.508;8.590;2023-04-06T07:14:21;18.50;;;9.48;;
61250;SDS011;47126;47.508;8.590;2023-04-06T07:16:47;15.45;;;8.07;;
61250;SDS011;47126;47.508;8.590;2023-04-06T07:19:18;18.92;;;9.63;;
61250;SDS011;47126;47.508;8.590;2023-04-06T07:21:44;18.10;;;9.02;;
61250;SDS011;47126;47.508;8.590;2023-04-06T07:24:12;15.18;;;8.48;;
61250;SDS011;47126;47.508;8.590;2023-04-06T07:26:39;16.80;;;8.82;;
61250;SDS011;47126;47.508;8.590;2023-04-06T07:29:07;17.33;;;9.48;;
61250;SDS011;47126;47.508;8.590;2023-04-06T07:31:36;15.40;;;8.75;;
61250;SDS011;47126;47.508;8.590;2023-04-06T07:34:03;19.65;;;9.30;;
61250;SDS011;47126;47.508;8.590;2023-04-06T07:36:29;20.02;;;9.75;;
61250;SDS011;47126;47.508;8.590;2023-04-06T07:38:58;17.88;;;9.57;;
61250;SDS011;47126;47.508;8.590;2023-04-06T07:41:26;20.73;;;10.88;;
61250;SDS011;47126;47.508;8.590;2023-04-06T07:43:55;16.88;;;9.15;;
61250;SDS011;47126;47.508;8.590;2023-04-06T07:46:30;15.88;;;8.25;;
61250;SDS011;47126;47.508;8.590;2023-04-06T07:48:57;17.48;;;9.38;;
61250;SDS011;47126;47.508;8.590;2023-04-06T07:51:23;17.75;;;9.05;;
61250;SDS011;47126;47.508;8.590;2023-04-06T07:53:50;14.32;;;8.57;;
61250;SDS011;47126;47.508;8.590;2023-04-06T07:56:17;16.60;;;9.32;;
61250;SDS011;47126;47.508;8.590;2023-04-06T07:58:43;17.15;;;9.10;;
61250;SDS011;47126;47.508;8.590;2023-04-06T08:01:09;18.65;;;9.75;;
61250;SDS011;47126;47.508;8.590;2023-04-06T08:03:35;16.80;;;9.05;;
61250;SDS011;47126;47.508;8.590;2023-04-06T08:06:08;16.02;;;8.88;;
61250;SDS011;47126;47.508;8.590;2023-04-06T08:08:37;17.00;;;9.73;;
61250;SDS011;47126;47.508;8.590;2023-04-06T08:11:03;16.65;;;8.75;;
61250;SDS011;47126;47.508;8.590;2023-04-06T08:13:29;23.83;;;11.95;;
61250;SDS011;47126;47.508;8.590;2023-04-06T08:15:58;13.25;;;8.68;;
61250;SDS011;47126;47.508;8.590;2023-04-06T08:18:25;17.15;;;9.55;;
61250;SDS011;47126;47.508;8.590;2023-04-06T08:20:51;16.70;;;10.18;;
61250;SDS011;47126;47.508;8.590;2023-04-06T08:23:23;15.38;;;8.88;;
61250;SDS011;47126;47.508;8.590;2023-04-06T08:25:55;16.52;;;8.82;;
61250;SDS011;47126;47.508;8.590;2023-04-06T08:28:21;14.98;;;8.73;;
61250;SDS011;47126;47.508;8.590;2023-04-06T08:30:48;18.33;;;8.65;;
61250;SDS011;47126;47.508;8.590;2023-04-06T08:33:14;16.52;;;9.13;;
61250;SDS011;47126;47.508;8.590;2023-04-06T08:35:40;12.93;;;8.52;;
61250;SDS011;47126;47.508;8.590;2023-04-06T08:38:06;13.45;;;8.00;;
61250;SDS011;47126;47.508;8.590;2023-04-06T08:40:36;14.73;;;8.20;;
61250;SDS011;47126;47.508;8.590;2023-04-06T08:43:03;12.77;;;7.78;;
61250;SDS011;47126;47.508;8.590;2023-04-06T08:45:33;17.23;;;8.55;;
61250;SDS011;47126;47.508;8.590;2023-04-06T08:47:59;13.63;;;7.97;;
61250;SDS011;47126;47.508;8.590;2023-04-06T08:50:30;13.57;;;7.88;;
61250;SDS011;47126;47.508;8.590;2023-04-06T08:52:56;12.52;;;8.35;;
61250;SDS011;47126;47.508;8.590;2023-04-06T08:55:33;15.52;;;9.02;;
61250;SDS011;47126;47.508;8.590;2023-04-06T09:01:06;12.85;;;8.63;;
61250;SDS011;47126;47.508;8.590;2023-04-06T09:03:50;12.75;;;9.00;;
61250;SDS011;47126;47.508;8.590;2023-04-06T09:16:38;19.35;;;11.25;;
61250;SDS011;47126;47.508;8.590;2023-04-06T09:25:09;11.35;;;7.80;;
61250;SDS011;47126;47.508;8.590;2023-04-06T09:30:56;12.32;;;7.88;;
61250;SDS011;47126;47.508;8.590;2023-04-06T09:33:46;12.10;;;7.75;;
61250;SDS011;47126;47.508;8.590;2023-04-06T09:39:42;12.85;;;6.93;;
61250;SDS011;47126;47.508;8.590;2023-04-06T09:42:24;12.15;;;7.22;;
61250;SDS011;47126;47.508;8.590;2023-04-06T09:44:56;12.60;;;6.90;;
61250;SDS011;47126;47.508;8.590;2023-04-06T10:05:09;12.13;;;6.97;;
61250;SDS011;47126;47.508;8.590;2023-04-06T10:07:35;12.32;;;6.32;;
61250;SDS011;47126;47.508;8.590;2023-04-06T10:10:04;11.77;;;6.28;;
61250;SDS011;47126;47.508;8.590;2023-04-06T10:12:31;13.48;;;6.22;;
61250;SDS011;47126;47.508;8.590;2023-04-06T10:15:03;12.43;;;6.35;;
61250;SDS011;47126;47.508;8.590;2023-04-06T10:17:50;13.60;;;7.18;;
61250;SDS011;47126;47.508;8.590;2023-04-06T10:23:32;11.27;;;6.45;;
61250;SDS011;47126;47.508;8.590;2023-04-06T10:26:00;11.38;;;6.00;;
61250;SDS011;47126;47.508;8.590;2023-04-06T10:29:26;11.82;;;6.25;;
61250;SDS011;47126;47.508;8.590;2023-04-06T10:31:53;15.50;;;7.85;;
61250;SDS011;47126;47.508;8.590;2023-04-06T10:34:49;38.97;;;22.63;;
61250;SDS011;47126;47.508;8.590;2023-04-06T10:40:50;12.07;;;5.97;;
61250;SDS011;47126;47.508;8.590;2023-04-06T10:43:32;16.70;;;9.23;;
61250;SDS011;47126;47.508;8.590;2023-04-06T10:45:59;11.60;;;6.75;;
61250;SDS011;47126;47.508;8.590;2023-04-06T10:48:36;11.77;;;6.30;;
61250;SDS011;47126;47.508;8.590;2023-04-06T10:51:07;11.77;;;6.25;;
61250;SDS011;47126;47.508;8.590;2023-04-06T10:53:35;13.73;;;6.65;;
61250;SDS011;47126;47.508;8.590;2023-04-06T10:56:01;11.13;;;5.32;;
61250;SDS011;47126;47.508;8.590;2023-04-06T10:58:30;10.00;;;5.35;;
61250;SDS011;47126;47.508;8.590;2023-04-06T11:00:56;13.75;;;5.93;;
61250;SDS011;47126;47.508;8.590;2023-04-06T11:03:23;10.57;;;5.85;;
61250;SDS011;47126;47.508;8.590;2023-04-06T11:05:50;11.90;;;5.50;;
61250;SDS011;47126;47.508;8.590;2023-04-06T11:08:29;11.43;;;5.88;;
61250;SDS011;47126;47.508;8.590;2023-04-06T11:13:44;12.68;;;5.60;;
61250;SDS011;47126;47.508;8.590;2023-04-06T11:16:17;11.73;;;5.88;;
61250;SDS011;47126;47.508;8.590;2023-04-06T11:18:47;10.77;;;5.78;;
61250;SDS011;47126;47.508;8.590;2023-04-06T11:21:13;12.52;;;6.00;;
61250;SDS011;47126;47.508;8.590;2023-04-06T11:23:39;11.65;;;6.28;;
61250;SDS011;47126;47.508;8.590;2023-04-06T11:26:10;12.10;;;6.32;;
61250;SDS011;47126;47.508;8.590;2023-04-06T11:28:37;12.82;;;5.88;;
61250;SDS011;47126;47.508;8.590;2023-04-06T11:31:04;11.75;;;6.53;;
61250;SDS011;47126;47.508;8.590;2023-04-06T11:33:34;14.35;;;5.85;;
61250;SDS011;47126;47.508;8.590;2023-04-06T11:36:01;9.82;;;5.35;;
61250;SDS011;47126;47.508;8.590;2023-04-06T11:38:27;11.13;;;5.72;;
61250;SDS011;47126;47.508;8.590;2023-04-06T11:40:53;10.48;;;5.20;;
61250;SDS011;47126;47.508;8.590;2023-04-06T11:43:25;8.93;;;4.88;;
61250;SDS011;47126;47.508;8.590;2023-04-06T11:46:02;9.30;;;5.25;;
61250;SDS011;47126;47.508;8.590;2023-04-06T11:48:29;9.30;;;4.90;;
61250;SDS011;47126;47.508;8.590;2023-04-06T11:50:56;12.25;;;6.00;;
61250;SDS011;47126;47.508;8.590;2023-04-06T11:53:22;10.80;;;5.78;;
61250;SDS011;47126;47.508;8.590;2023-04-06T11:55:48;10.07;;;5.40;;
61250;SDS011;47126;47.508;8.590;2023-04-06T11:58:15;12.77;;;5.78;;
61250;SDS011;47126;47.508;8.590;2023-04-06T12:00:41;10.82;;;5.70;;
61250;SDS011;47126;47.508;8.590;2023-04-06T12:03:10;12.82;;;5.05;;
61250;SDS011;47126;47.508;8.590;2023-04-06T12:05:39;11.15;;;5.20;;
61250;SDS011;47126;47.508;8.590;2023-04-06T12:08:05;11.05;;;5.45;;
61250;SDS011;47126;47.508;8.590;2023-04-06T12:10:31;9.77;;;5.25;;
61250;SDS011;47126;47.508;8.590;2023-04-06T12:12:57;12.27;;;5.72;;
61250;SDS011;47126;47.508;8.590;2023-04-06T12:15:23;11.32;;;5.97;;
61250;SDS011;47126;47.508;8.590;2023-04-06T12:17:49;11.82;;;5.68;;
61250;SDS011;47126;47.508;8.590;2023-04-06T12:20:15;11.52;;;5.63;;
61250;SDS011;47126;47.508;8.590;2023-04-06T12:22:41;11.65;;;5.88;;
61250;SDS011;47126;47.508;8.590;2023-04-06T12:25:07;8.40;;;5.18;;
61250;SDS011;47126;47.508;8.590;2023-04-06T12:27:34;10.65;;;5.90;;
61250;SDS011;47126;47.508;8.590;2023-04-06T12:30:00;12.32;;;6.05;;
61250;SDS011;47126;47.508;8.590;2023-04-06T12:32:27;26.42;;;19.02;;
61250;SDS011;47126;47.508;8.590;2023-04-06T12:34:54;14.68;;;6.20;;
61250;SDS011;47126;47.508;8.590;2023-04-06T12:37:20;13.32;;;5.97;;
61250;SDS011;47126;47.508;8.590;2023-04-06T12:39:46;11.77;;;5.95;;
61250;SDS011;47126;47.508;8.590;2023-04-06T12:42:13;12.05;;;6.25;;
61250;SDS011;47126;47.508;8.590;2023-04-06T12:44:39;11.88;;;5.65;;
61250;SDS011;47126;47.508;8.590;2023-04-06T12:47:07;13.45;;;6.35;;
61250;SDS011;47126;47.508;8.590;2023-04-06T12:49:33;11.18;;;6.03;;
61250;SDS011;47126;47.508;8.590;2023-04-06T12:52:03;15.75;;;5.78;;
61250;SDS011;47126;47.508;8.590;2023-04-06T12:54:29;13.82;;;6.22;;
61250;SDS011;47126;47.508;8.590;2023-04-06T12:56:55;12.13;;;5.82;;
61250;SDS011;47126;47.508;8.590;2023-04-06T12:59:21;9.82;;;5.78;;
61250;SDS011;47126;47.508;8.590;2023-04-06T13:01:47;10.52;;;5.72;;
61250;SDS011;47126;47.508;8.590;2023-04-06T13:04:13;10.20;;;5.53;;
61250;SDS011;47126;47.508;8.590;2023-04-06T13:06:39;12.52;;;5.25;;
61250;SDS011;47126;47.508;8.590;2023-04-06T13:09:05;13.80;;;5.65;;
61250;SDS011;47126;47.508;8.590;2023-04-06T13:11:32;9.23;;;4.93;;
61250;SDS011;47126;47.508;8.590;2023-04-06T13:13:58;12.77;;;5.15;;
61250;SDS011;47126;47.508;8.590;2023-04-06T13:16:25;10.15;;;5.05;;
61250;SDS011;47126;47.508;8.590;2023-04-06T13:18:54;8.13;;;4.60;;
61250;SDS011;47126;47.508;8.590;2023-04-06T13:21:20;10.55;;;5.20;;
61250;SDS011;47126;47.508;8.590;2023-04-06T13:23:46;8.95;;;4.78;;
61250;SDS011;47126;47.508;8.590;2023-04-06T13:26:12;9.00;;;4.60;;
61250;SDS011;47126;47.508;8.590;2023-04-06T13:28:40;6.63;;;3.72;;
61250;SDS011;47126;47.508;8.590;2023-04-06T13:31:06;7.85;;;4.15;;
61250;SDS011;47126;47.508;8.590;2023-04-06T13:33:33;9.75;;;4.25;;
61250;SDS011;47126;47.508;8.590;2023-04-06T13:35:59;8.82;;;3.80;;
61250;SDS011;47126;47.508;8.590;2023-04-06T13:38:25;9.55;;;4.88;;
61250;SDS011;47126;47.508;8.590;2023-04-06T13:40:51;11.00;;;4.63;;
61250;SDS011;47126;47.508;8.590;2023-04-06T13:43:17;10.82;;;4.88;;
61250;SDS011;47126;47.508;8.590;2023-04-06T13:45:49;13.48;;;5.38;;
61250;SDS011;47126;47.508;8.590;2023-04-06T13:48:15;11.20;;;5.47;;
61250;SDS011;47126;47.508;8.590;2023-04-06T13:50:41;12.30;;;5.20;;
61250;SDS011;47126;47.508;8.590;2023-04-06T13:53:07;10.77;;;5.60;;
61250;SDS011;47126;47.508;8.590;2023-04-06T13:55:33;8.68;;;4.50;;
61250;SDS011;47126;47.508;8.590;2023-04-06T13:57:59;10.82;;;5.38;;
61250;SDS011;47126;47.508;8.590;2023-04-06T14:00:25;12.10;;;5.07;;
61250;SDS011;47126;47.508;8.590;2023-04-06T14:02:53;9.40;;;4.97;;
61250;SDS011;47126;47.508;8.590;2023-04-06T14:05:19;8.13;;;4.55;;
61250;SDS011;47126;47.508;8.590;2023-04-06T14:07:45;11.55;;;5.07;;
61250;SDS011;47126;47.508;8.590;2023-04-06T14:10:11;9.55;;;5.10;;
61250;SDS011;47126;47.508;8.590;2023-04-06T14:12:45;8.00;;;3.92;;
61250;SDS011;47126;47.508;8.590;2023-04-06T14:15:11;8.88;;;4.32;;
61250;SDS011;47126;47.508;8.590;2023-04-06T14:17:37;9.55;;;4.15;;
61250;SDS011;47126;47.508;8.590;2023-04-06T14:20:06;9.10;;;4.90;;
61250;SDS011;47126;47.508;8.590;2023-04-06T14:22:33;9.32;;;4.22;;
61250;SDS011;47126;47.508;8.590;2023-04-06T14:24:59;9.93;;;4.60;;
61250;SDS011;47126;47.508;8.590;2023-04-06T14:27:25;8.18;;;4.18;;
61250;SDS011;47126;47.508;8.590;2023-04-06T14:29:51;12.15;;;4.63;;
61250;SDS011;47126;47.508;8.590;2023-04-06T14:32:27;11.02;;;4.15;;
61250;SDS011;47126;47.508;8.590;2023-04-06T14:34:53;9.68;;;4.22;;
61250;SDS011;47126;47.508;8.590;2023-04-06T14:37:19;10.13;;;4.80;;
61250;SDS011;47126;47.508;8.590;2023-04-06T14:39:46;8.30;;;4.10;;
61250;SDS011;47126;47.508;8.590;2023-04-06T14:42:12;7.88;;;4.07;;
61250;SDS011;47126;47.508;8.590;2023-04-06T14:44:38;8.45;;;4.30;;
61250;SDS011;47126;47.508;8.590;2023-04-06T14:47:07;8.75;;;4.72;;
61250;SDS011;47126;47.508;8.590;2023-04-06T14:49:33;9.30;;;4.63;;
61250;SDS011;47126;47.508;8.590;2023-04-06T14:51:59;9.52;;;4.30;;
61250;SDS011;47126;47.508;8.590;2023-04-06T14:54:25;11.18;;;4.32;;
61250;SDS011;47126;47.508;8.590;2023-04-06T14:56:51;11.57;;;4.30;;
61250;SDS011;47126;47.508;8.590;2023-04-06T14:59:17;9.38;;;4.43;;
61250;SDS011;47126;47.508;8.590;2023-04-06T15:01:43;9.75;;;4.78;;
61250;SDS011;47126;47.508;8.590;2023-04-06T15:04:09;9.63;;;4.80;;
61250;SDS011;47126;47.508;8.590;2023-04-06T15:06:35;9.48;;;4.38;;
61250;SDS011;47126;47.508;8.590;2023-04-06T15:09:01;10.05;;;4.20;;
61250;SDS011;47126;47.508;8.590;2023-04-06T15:11:27;13.40;;;4.70;;
61250;SDS011;47126;47.508;8.590;2023-04-06T15:13:53;11.68;;;5.43;;
61250;SDS011;47126;47.508;8.590;2023-04-06T15:16:19;11.02;;;4.45;;
61250;SDS011;47126;47.508;8.590;2023-04-06T15:18:45;8.05;;;4.28;;
61250;SDS011;47126;47.508;8.590;2023-04-06T15:21:12;8.77;;;4.20;;
61250;SDS011;47126;47.508;8.590;2023-04-06T15:23:38;11.73;;;5.32;;
61250;SDS011;47126;47.508;8.590;2023-04-06T15:26:04;9.30;;;4.65;;
61250;SDS011;47126;47.508;8.590;2023-04-06T15:28:30;12.77;;;5.03;;
61250;SDS011;47126;47.508;8.590;2023-04-06T15:30:56;11.27;;;4.90;;
61250;SDS011;47126;47.508;8.590;2023-04-06T15:33:22;10.95;;;5.30;;
61250;SDS011;47126;47.508;8.590;2023-04-06T15:35:49;10.43;;;5.32;;
61250;SDS011;47126;47.508;8.590;2023-04-06T15:38:15;10.15;;;4.72;;
61250;SDS011;47126;47.508;8.590;2023-04-06T15:40:44;13.23;;;5.18;;
61250;SDS011;47126;47.508;8.590;2023-04-06T15:43:11;10.37;;;4.83;;
61250;SDS011;47126;47.508;8.590;2023-04-06T15:45:37;13.15;;;5.05;;
61250;SDS011;47126;47.508;8.590;2023-04-06T15:48:03;11.50;;;5.25;;
61250;SDS011;47126;47.508;8.590;2023-04-06T15:50:29;8.95;;;4.93;;